Time;durP1;ratioP1;P1;durP2;ratioP2;P2;SDS_P1;SDS_P2;PMS_P1;PMS_P2;Temp;Humidity;BMP_temperature;BMP_pressure;BME280_temperature;BME280_humidity;BME280_pressure;Samples;Min_cycle;Max_cycle;Signal;HPM_P1;HPM_P2
2021/12/11 00:01:50;;;;;;;8.73;4.40;;;;;;;9.17;70.69;100291.28;1769439;78;21082;-59
2021/12/11 00:04:24;;;;;;;8.70;4.28;;;;;;;9.25;70.49;100301.55;1787586;78;22894;-59
2021/12/11 00:06:53;;;;;;;8.48;4.95;;;;;;;9.30;70.50;100296.79;1787408;78;21122;-59
2021/12/11 00:09:24;;;;;;;9.35;4.83;;;;;;;9.34;70.38;100304.44;1783777;78;21114;-59
2021/12/11 00:11:56;;;;;;;8.33;4.92;;;;;;;9.34;70.51;100303.95;1794954;79;21548;-59
2021/12/11 00:14:22;;;;;;;10.82;5.28;;;;;;;9.34;70.47;100310.52;1782735;78;21117;-59
2021/12/11 00:16:49;;;;;;;10.98;5.60;;;;;;;9.32;70.49;100307.18;1757629;79;21087;-59
2021/12/11 00:19:24;;;;;;;10.28;6.10;;;;;;;9.31;70.43;100306.81;1783835;79;21825;-59
2021/12/11 00:21:50;;;;;;;11.20;5.60;;;;;;;9.27;70.47;100302.76;1786229;79;21005;-59
2021/12/11 00:24:26;;;;;;;10.32;5.55;;;;;;;9.28;70.45;100311.83;1787663;78;21101;-59
2021/12/11 00:26:58;;;;;;;11.73;5.40;;;;;;;9.35;70.30;100312.20;1786772;78;21018;-59
2021/12/11 00:29:26;;;;;;;9.80;5.65;;;;;;;9.38;70.19;100314.60;1781799;78;21156;-59
2021/12/11 00:32:06;;;;;;;10.23;6.25;;;;;;;9.39;70.26;100306.23;1783189;78;22161;-59
2021/12/11 00:34:36;;;;;;;14.70;5.97;;;;;;;9.34;70.45;100303.95;1788528;78;21621;-59
2021/12/11 00:37:08;;;;;;;10.28;6.05;;;;;;;9.29;70.58;100305.61;1795480;79;21417;-59
2021/12/11 00:39:49;;;;;;;9.43;5.83;;;;;;;9.26;70.76;100304.55;1789912;79;21066;-58
2021/12/11 00:42:16;;;;;;;10.55;5.92;;;;;;;9.25;70.78;100298.11;1779749;79;21149;-59
2021/12/11 00:44:52;;;;;;;10.78;6.28;;;;;;;9.23;70.77;100310.48;1760233;79;21062;-58
2021/12/11 00:47:26;;;;;;;10.70;5.95;;;;;;;9.22;70.82;100309.66;1792562;78;21061;-59
2021/12/11 00:50:10;;;;;;;13.08;5.42;;;;;;;9.32;70.84;100309.81;1790489;78;21037;-59
2021/12/11 00:52:59;;;;;;;11.65;6.90;;;;;;;9.37;70.77;100310.30;1788370;78;21449;-60
2021/12/11 00:55:30;;;;;;;11.45;6.37;;;;;;;9.41;70.95;100312.20;1757069;78;21212;-59
2021/12/11 00:58:11;;;;;;;16.65;7.45;;;;;;;9.40;71.08;100317.11;1790876;78;21356;-59
2021/12/11 01:01:00;;;;;;;11.45;6.60;;;;;;;9.36;71.10;100309.92;1787340;79;21118;-59
2021/12/11 01:03:46;;;;;;;10.05;6.15;;;;;;;9.35;71.33;100308.75;1787215;78;21097;-58
2021/12/11 01:06:19;;;;;;;;;;;;;;;9.31;71.30;100306.81;1773008;78;21007;-59
2021/12/11 01:08:56;;;;;;;12.93;6.53;;;;;;;9.31;71.23;100301.55;1804538;77;21198;-59
2021/12/11 01:11:35;;;;;;;10.75;6.60;;;;;;;9.33;71.28;100302.76;1773658;78;21049;-58
2021/12/11 01:14:17;;;;;;;10.55;6.08;;;;;;;9.36;71.32;100303.84;1813851;77;21845;-58
2021/12/11 01:16:38;;;;;;;9.58;5.95;;;;;;;9.37;71.51;100301.09;1775728;77;20998;-58
2021/12/11 01:19:05;;;;;;;11.15;6.67;;;;;;;9.39;71.54;100295.25;1805761;78;21486;-59
2021/12/11 01:24:27;;;;;;;10.32;6.58;;;;;;;9.39;71.46;100300.98;1773407;79;21070;-59
2021/12/11 01:26:50;;;;;;;11.53;6.10;;;;;;;9.36;71.48;100298.10;1709892;80;21043;-59
2021/12/11 01:29:19;;;;;;;10.15;5.72;;;;;;;9.35;71.49;100299.08;1739206;80;21086;-59
2021/12/11 01:31:48;;;;;;;9.65;5.08;;;;;;;9.39;71.32;100296.56;1810024;77;20998;-58
2021/12/11 01:34:14;;;;;;;9.33;5.53;;;;;;;9.49;71.14;100295.38;1810956;77;21043;-58
2021/12/11 01:36:42;;;;;;;10.98;6.35;;;;;;;9.57;70.96;100293.00;1805688;77;21063;-58
2021/12/11 01:39:17;;;;;;;12.78;6.20;;;;;;;9.62;70.95;100300.54;1806870;77;21002;-59
2021/12/11 01:41:45;;;;;;;13.20;6.58;;;;;;;9.62;70.97;100303.16;1812229;77;21551;-59
2021/12/11 01:44:19;;;;;;;10.00;6.08;;;;;;;9.58;70.98;100305.20;1806162;77;20983;-58
2021/12/11 01:46:46;;;;;;;11.63;6.87;;;;;;;9.53;71.09;100302.09;1766358;77;21052;-58
2021/12/11 01:49:20;;;;;;;13.90;6.20;;;;;;;9.51;71.18;100297.89;1784347;79;21491;-58
2021/12/11 01:51:52;;;;;;;8.60;5.62;;;;;;;9.51;71.23;100305.77;1803189;77;21081;-59
2021/12/11 01:54:32;;;;;;;8.53;4.45;;;;;;;9.56;71.02;100299.20;1763273;79;21806;-58
2021/12/11 01:57:03;;;;;;;8.90;4.70;;;;;;;9.66;70.76;100296.70;1759515;79;21071;-57
2021/12/11 01:59:35;;;;;;;10.03;5.42;;;;;;;9.70;70.58;100291.59;1714308;80;21231;-58
2021/12/11 02:02:16;;;;;;;10.15;6.00;;;;;;;9.70;70.65;100287.64;1791996;77;21566;-59
2021/12/11 02:04:46;;;;;;;10.35;5.65;;;;;;;9.69;70.69;100289.91;1798790;77;21077;-59
2021/12/11 02:07:29;;;;;;;11.38;5.60;;;;;;;9.68;70.80;100290.84;1755115;79;21477;-59
2021/12/11 02:09:58;;;;;;;12.53;6.55;;;;;;;9.66;70.76;100288.34;1728778;80;21063;-59
2021/12/11 02:12:37;;;;;;;10.75;6.08;;;;;;;9.62;70.72;100287.41;1740835;79;21551;-58
2021/12/11 02:15:08;;;;;;;11.78;6.03;;;;;;;9.59;70.77;100294.20;1748106;79;21094;-59
2021/12/11 02:17:52;;;;;;;10.15;5.47;;;;;;;9.63;70.67;100293.00;1752295;79;21065;-58
2021/12/11 02:20:28;;;;;;;9.38;5.03;;;;;;;9.71;70.52;100303.75;1727692;81;21105;-58
2021/12/11 02:22:54;;;;;;;8.45;4.67;;;;;;;9.78;70.43;100303.62;1724837;80;21552;-59
2021/12/11 02:25:35;;;;;;;9.68;5.62;;;;;;;9.81;70.51;100307.81;1789887;77;21497;-59
2021/12/11 02:28:14;;;;;;;8.83;5.65;;;;;;;9.79;70.45;100315.82;1755088;79;21496;-59
2021/12/11 02:30:54;;;;;;;10.32;6.25;;;;;;;9.75;70.66;100315.71;1752607;79;21615;-58
2021/12/11 02:33:39;;;;;;;12.35;5.87;;;;;;;9.71;70.66;100317.38;1728174;80;21047;-58
2021/12/11 02:36:13;;;;;;;11.38;6.33;;;;;;;9.66;70.67;100321.17;1756106;79;21012;-58
2021/12/11 02:39:01;;;;;;;10.25;6.20;;;;;;;9.62;70.84;100325.50;1738820;80;21212;-59
2021/12/11 02:42:03;;;;;;;9.13;5.35;;;;;;;9.64;70.80;100324.41;1755392;79;21043;-58
2021/12/11 02:44:47;;;;;;;9.80;5.53;;;;;;;9.74;70.60;100320.59;1744476;80;21064;-59
2021/12/11 02:47:31;;;;;;;8.98;6.20;;;;;;;9.78;70.50;100325.95;1765666;79;21055;-58
2021/12/11 02:50:03;;;;;;;9.85;6.00;;;;;;;9.79;70.53;100318.94;1762534;79;21749;-58
2021/12/11 02:52:41;;;;;;;10.50;6.42;;;;;;;9.75;70.61;100313.54;1720989;81;21936;-58
2021/12/11 02:55:15;;;;;;;16.73;7.35;;;;;;;9.71;70.76;100313.44;1748681;80;21059;-59
2021/12/11 02:57:47;;;;;;;10.25;6.62;;;;;;;9.69;70.85;100312.72;1755459;79;21094;-58
2021/12/11 03:00:22;;;;;;;13.22;7.22;;;;;;;9.66;70.76;100319.86;1731460;81;21092;-58
2021/12/11 03:02:59;;;;;;;12.53;7.05;;;;;;;9.62;70.82;100321.06;1751508;81;21031;-58
2021/12/11 03:05:23;;;;;;;11.05;6.05;;;;;;;9.67;70.62;100323.34;1732461;80;21027;-58
2021/12/11 03:07:52;;;;;;;13.15;7.17;;;;;;;9.75;70.42;100319.66;1737698;80;21538;-59
2021/12/11 03:10:21;;;;;;;13.95;6.50;;;;;;;9.82;70.27;100320.84;1739015;80;21085;-59
2021/12/11 03:12:48;;;;;;;10.40;6.53;;;;;;;9.86;70.22;100324.89;1741479;80;21101;-58
2021/12/11 03:15:16;;;;;;;9.65;6.35;;;;;;;9.85;70.02;100326.31;1740594;80;21054;-59
2021/12/11 03:17:42;;;;;;;9.43;6.20;;;;;;;9.80;69.84;100317.50;1740242;80;21813;-59
2021/12/11 03:20:12;;;;;;;9.50;6.58;;;;;;;9.77;69.83;100314.28;1716471;81;21646;-58
2021/12/11 03:22:42;;;;;;;10.40;5.97;;;;;;;9.72;69.74;100311.18;1721522;81;21615;-58
2021/12/11 03:25:11;;;;;;;12.60;6.25;;;;;;;9.67;69.84;100309.72;1715371;82;21087;-58
2021/12/11 03:27:38;;;;;;;12.00;6.15;;;;;;;9.63;69.72;100311.39;1718473;81;21110;-58
2021/12/11 03:30:08;;;;;;;8.60;5.45;;;;;;;9.64;69.63;100308.64;1791782;78;21265;-61
2021/12/11 03:32:35;;;;;;;9.58;5.35;;;;;;;9.72;69.41;100309.38;1776070;78;21126;-57
2021/12/11 03:35:05;;;;;;;10.35;5.55;;;;;;;9.76;69.35;100307.34;1787665;78;21062;-58
2021/12/11 03:37:33;;;;;;;11.60;6.22;;;;;;;9.80;69.20;100299.11;1780989;78;21047;-58
2021/12/11 03:39:59;;;;;;;11.68;6.35;;;;;;;9.78;69.21;100290.48;1743363;80;21038;-58
2021/12/11 03:42:30;;;;;;;9.85;6.22;;;;;;;9.78;69.21;100289.66;1746835;80;21396;-57
2021/12/11 03:44:59;;;;;;;10.20;6.45;;;;;;;9.78;69.20;100281.77;1786525;78;21023;-58
2021/12/11 03:47:30;;;;;;;11.73;6.20;;;;;;;9.76;69.08;100284.52;1734676;80;21047;-58
2021/12/11 03:49:56;;;;;;;9.68;5.87;;;;;;;9.71;69.06;100282.73;1713398;80;21062;-58
2021/12/11 03:52:23;;;;;;;11.63;6.85;;;;;;;9.65;69.21;100286.69;1746882;80;21146;-58
2021/12/11 03:54:52;;;;;;;9.68;6.17;;;;;;;9.68;69.19;100293.47;1789901;78;21129;-58
2021/12/11 03:57:23;;;;;;;8.60;5.80;;;;;;;9.77;69.01;100293.26;1781788;78;21085;-58
2021/12/11 03:59:50;;;;;;;10.32;6.00;;;;;;;9.84;68.87;100289.19;1787033;78;21074;-58
2021/12/11 05:22:15;;;;;;;14.05;5.50;;;;;;;9.79;68.66;100280.34;1779840;79;22268;-59
2021/12/11 05:24:45;;;;;;;11.48;6.47;;;;;;;9.78;68.74;100275.20;1724285;81;21091;-58
2021/12/11 05:27:12;;;;;;;10.70;6.17;;;;;;;9.81;68.83;100276.28;1681597;83;21268;-58
2021/12/11 05:29:38;;;;;;;10.45;6.70;;;;;;;9.79;68.97;100272.46;1700094;82;21650;-59
2021/12/11 05:32:08;;;;;;;10.80;6.15;;;;;;;9.79;69.09;100273.77;1709546;82;21925;-61
2021/12/11 05:34:34;;;;;;;10.05;5.67;;;;;;;9.78;69.11;100268.63;1706701;82;21099;-58
2021/12/11 05:37:01;;;;;;;10.88;6.22;;;;;;;9.74;69.04;100272.47;1683355;82;21546;-59
2021/12/11 05:39:28;;;;;;;10.13;6.25;;;;;;;9.71;69.07;100269.59;1707016;82;21069;-60
2021/12/11 05:41:54;;;;;;;10.28;5.35;;;;;;;9.68;69.04;100273.77;1675561;83;21054;-60
2021/12/11 05:44:21;;;;;;;9.65;5.47;;;;;;;9.70;68.83;100274.51;1679381;83;21023;-60
2021/12/11 05:46:48;;;;;;;9.80;6.40;;;;;;;9.75;68.69;100280.23;1691536;82;21563;-60
2021/12/11 05:49:15;;;;;;;8.53;5.22;;;;;;;9.80;68.57;100283.34;1699753;82;21572;-61
2021/12/11 05:51:43;;;;;;;15.15;6.78;;;;;;;9.82;68.55;100280.11;1699654;82;21959;-60
2021/12/11 05:54:15;;;;;;;11.80;5.75;;;;;;;9.84;68.39;100277.36;1677487;82;21014;-60
2021/12/11 05:56:42;;;;;;;9.95;5.65;;;;;;;9.78;68.40;100286.55;1696401;82;21667;-57
2021/12/11 05:59:11;;;;;;;10.05;6.03;;;;;;;9.76;68.48;100281.89;1672723;83;21087;-59
2021/12/11 06:01:45;;;;;;;10.72;6.15;;;;;;;9.73;68.41;100282.13;1696659;82;21074;-59
2021/12/11 06:04:26;;;;;;;8.83;5.58;;;;;;;9.69;68.40;100274.63;1696165;82;21145;-59
2021/12/11 06:06:53;;;;;;;11.48;5.70;;;;;;;9.64;68.41;100274.98;1701737;82;21007;-59
2021/12/11 06:09:21;;;;;;;11.12;5.60;;;;;;;9.66;68.36;100274.37;1698041;82;20966;-59
2021/12/11 06:11:50;;;;;;;14.55;5.60;;;;;;;9.76;68.11;100271.87;1668225;82;21063;-59
2021/12/11 06:14:17;;;;;;;9.60;5.00;;;;;;;9.83;67.91;100264.71;1698634;82;21016;-60
2021/12/11 06:16:46;;;;;;;9.00;5.00;;;;;;;9.85;67.78;100265.42;1706599;82;21105;-59
2021/12/11 06:19:12;;;;;;;15.55;5.47;;;;;;;9.85;67.79;100271.98;1700150;82;21015;-59
2021/12/11 06:21:38;;;;;;;11.18;5.72;;;;;;;9.83;67.72;100260.77;1662511;84;20999;-60
2021/12/11 06:24:05;;;;;;;10.68;5.87;;;;;;;9.83;67.70;100264.71;1681386;83;20947;-60
2021/12/11 06:26:32;;;;;;;11.08;6.00;;;;;;;9.83;67.59;100268.65;1684952;83;21425;-60
2021/12/11 06:28:58;;;;;;;8.70;5.62;;;;;;;9.78;67.42;100265.52;1714507;81;20980;-59
2021/12/11 06:31:25;;;;;;;9.70;5.65;;;;;;;9.73;67.57;100278.19;1740310;80;20938;-59
2021/12/11 06:33:52;;;;;;;11.15;5.37;;;;;;;9.68;67.56;100276.39;1707329;82;20974;-59
2021/12/11 06:36:21;;;;;;;12.53;6.40;;;;;;;9.70;67.52;100277.14;1713799;81;22036;-59
2021/12/11 06:38:51;;;;;;;9.60;5.00;;;;;;;9.78;67.25;100278.66;1736821;80;21915;-58
2021/12/11 06:41:22;;;;;;;11.20;6.35;;;;;;;9.84;67.15;100279.50;1730018;80;22183;-58
2021/12/11 06:43:49;;;;;;;10.55;6.03;;;;;;;9.86;67.03;100274.95;1738956;80;20930;-60
2021/12/11 06:46:15;;;;;;;9.58;5.30;;;;;;;9.82;67.17;100276.16;1706533;82;22064;-59
2021/12/11 06:48:42;;;;;;;11.30;5.50;;;;;;;9.80;67.29;100270.20;1715818;82;20942;-60
2021/12/11 06:51:09;;;;;;;17.75;6.72;;;;;;;9.79;67.28;100276.89;1715563;82;20953;-58
2021/12/11 06:53:43;;;;;;;9.45;5.47;;;;;;;9.75;67.28;100282.86;1708819;81;21030;-58
2021/12/11 06:56:11;;;;;;;12.65;6.75;;;;;;;9.71;67.35;100283.22;1700417;81;20937;-58
2021/12/11 06:58:37;;;;;;;13.72;6.70;;;;;;;9.67;67.48;100282.62;1736567;81;20975;-59
2021/12/11 07:01:05;;;;;;;10.82;6.22;;;;;;;9.64;67.56;100289.42;1736928;81;22038;-60
2021/12/11 07:03:31;;;;;;;7.33;4.60;;;;;;;9.67;67.52;100290.02;1727983;80;20934;-59
2021/12/11 07:05:58;;;;;;;12.68;5.85;;;;;;;9.75;67.26;100293.38;1727102;81;21126;-59
2021/12/11 07:08:26;;;;;;;10.30;5.00;;;;;;;9.81;67.27;100292.05;1729907;80;21014;-59
2021/12/11 07:10:52;;;;;;;12.58;6.10;;;;;;;9.85;67.21;100295.64;1729731;80;20920;-59
2021/12/11 07:13:19;;;;;;;13.78;6.42;;;;;;;9.85;67.22;100290.38;1730457;81;21393;-59
2021/12/11 07:15:45;;;;;;;10.28;6.03;;;;;;;9.83;67.24;100290.98;1734222;80;21011;-58
2021/12/11 07:18:13;;;;;;;14.30;6.40;;;;;;;9.83;67.21;100292.30;1732112;80;21559;-58
2021/12/11 07:20:41;;;;;;;11.20;6.10;;;;;;;9.80;67.15;100291.68;1731642;80;20946;-58
2021/12/11 07:23:08;;;;;;;9.83;6.20;;;;;;;9.76;67.17;100295.03;1714820;80;20992;-59
2021/12/11 07:25:42;;;;;;;9.75;5.62;;;;;;;9.71;67.20;100301.13;1721203;80;20892;-58
2021/12/11 07:28:10;;;;;;;9.78;5.42;;;;;;;9.66;67.29;100300.16;1721996;82;20889;-59
2021/12/11 07:30:40;;;;;;;9.90;6.12;;;;;;;9.70;67.19;100299.47;1731838;80;21086;-58
2021/12/11 07:33:06;;;;;;;9.88;5.72;;;;;;;9.77;67.01;100294.09;1722705;81;21485;-59
2021/12/11 07:35:33;;;;;;;11.03;5.70;;;;;;;9.80;66.83;100296.94;1722103;82;21146;-59
2021/12/11 07:38:00;;;;;;;11.83;6.35;;;;;;;9.81;66.90;100298.13;1682123;82;20951;-58
2021/12/11 07:40:30;;;;;;;11.38;6.70;;;;;;;9.81;66.88;100302.08;1713905;81;21157;-59
2021/12/11 07:42:56;;;;;;;11.12;6.67;;;;;;;9.81;67.02;100299.45;1731010;80;21918;-59
2021/12/11 07:45:23;;;;;;;10.08;6.42;;;;;;;9.84;66.86;100298.39;1727027;80;21050;-58
2021/12/11 07:47:50;;;;;;;11.35;6.95;;;;;;;9.81;66.82;100303.39;1725132;81;20920;-59
2021/12/11 07:50:16;;;;;;;11.83;7.40;;;;;;;9.79;66.76;100293.48;1716263;82;21012;-59
2021/12/11 07:52:42;;;;;;;10.23;6.42;;;;;;;9.76;66.87;100302.91;1725863;81;21051;-58
2021/12/11 07:55:09;;;;;;;10.85;6.83;;;;;;;9.73;66.90;100295.27;1723184;81;21114;-59
2021/12/11 07:57:37;;;;;;;13.93;6.30;;;;;;;9.74;66.91;100302.20;1730058;80;21973;-59
2021/12/11 08:00:10;;;;;;;10.23;5.85;;;;;;;9.80;66.75;100296.94;1722418;81;21055;-58
2021/12/11 08:02:39;;;;;;;10.20;5.22;;;;;;;9.83;66.66;100300.64;1729406;80;21983;-58
2021/12/11 08:05:06;;;;;;;9.68;5.92;;;;;;;9.84;66.73;100295.27;1727649;80;21777;-59
2021/12/11 08:07:33;;;;;;;10.50;6.90;;;;;;;9.80;66.88;100297.80;1730310;81;21066;-59
2021/12/11 08:09:59;;;;;;;11.93;6.70;;;;;;;9.75;66.99;100300.41;1731642;81;21505;-59
2021/12/11 08:12:26;;;;;;;11.48;6.87;;;;;;;9.71;67.16;100301.13;1720965;81;21088;-59
2021/12/11 08:14:52;;;;;;;11.68;7.00;;;;;;;9.67;67.31;100299.70;1727933;81;21461;-60
2021/12/11 08:17:19;;;;;;;10.43;6.00;;;;;;;9.64;67.38;100297.31;1733136;82;21075;-57
2021/12/11 08:19:46;;;;;;;12.35;6.47;;;;;;;9.58;67.51;100310.91;1717521;81;21352;-59
2021/12/11 08:22:12;;;;;;;11.15;6.20;;;;;;;9.52;67.67;100305.66;1688841;83;21093;-59
2021/12/11 08:24:39;;;;;;;10.40;5.65;;;;;;;9.53;67.75;100305.17;1683392;83;21046;-59
2021/12/11 08:27:14;;;;;;;11.78;6.15;;;;;;;9.60;67.77;100301.11;1695069;83;21522;-59
2021/12/11 08:29:43;;;;;;;10.50;6.30;;;;;;;9.61;67.91;100302.80;1704114;82;21038;-58
2021/12/11 08:32:10;;;;;;;12.55;6.03;;;;;;;9.60;68.07;100300.66;1693280;83;21107;-60
2021/12/11 08:34:37;;;;;;;9.10;5.20;;;;;;;9.58;68.14;100295.14;1701967;82;21109;-57
2021/12/11 08:37:05;;;;;;;13.10;6.67;;;;;;;9.51;68.38;100295.27;1681491;83;21053;-58
2021/12/11 08:39:32;;;;;;;12.35;5.97;;;;;;;9.45;68.53;100291.34;1692399;83;20986;-60
2021/12/11 08:41:58;;;;;;;10.25;5.67;;;;;;;9.41;68.65;100298.58;1673807;84;22261;-59
2021/12/11 08:44:25;;;;;;;9.73;5.60;;;;;;;9.29;68.89;100300.36;1692182;82;21230;-60
2021/12/11 08:46:58;;;;;;;10.82;5.30;;;;;;;9.25;69.10;100300.25;1691953;82;21018;-59
2021/12/11 08:49:29;;;;;;;9.58;5.15;;;;;;;9.32;69.11;100303.73;1686346;83;21094;-60
2021/12/11 08:52:03;;;;;;;9.50;5.40;;;;;;;9.36;69.02;100294.16;1706466;82;21108;-60
2021/12/11 08:54:31;;;;;;;9.88;5.12;;;;;;;9.38;69.06;100293.59;1683763;84;21049;-58
2021/12/11 08:56:59;;;;;;;11.83;6.22;;;;;;;9.36;69.06;100291.53;1706327;82;23341;-59
2021/12/11 08:59:27;;;;;;;10.00;5.20;;;;;;;9.32;68.94;100288.80;1694494;82;21267;-59
2021/12/11 09:02:07;;;;;;;10.82;5.80;;;;;;;9.28;69.09;100293.45;1706766;82;21117;-59
2021/12/11 09:04:45;;;;;;;8.13;4.75;;;;;;;9.27;69.01;100294.87;1708294;82;21058;-60
2021/12/11 09:07:17;;;;;;;11.78;5.78;;;;;;;9.25;68.80;100295.48;1703682;82;21050;-58
2021/12/11 09:10:10;;;;;;;9.85;5.47;;;;;;;9.20;68.69;100291.05;1698997;82;21193;-59
2021/12/11 09:13:11;;;;;;;7.33;4.87;;;;;;;9.21;68.67;100295.34;1719530;82;21427;-59
2021/12/11 09:15:55;;;;;;;9.35;5.65;;;;;;;9.28;68.48;100288.20;1694044;83;21504;-59
2021/12/11 09:18:37;;;;;;;9.85;5.58;;;;;;;9.32;68.41;100287.48;1711592;82;21519;-59
2021/12/11 09:21:19;;;;;;;11.68;5.87;;;;;;;9.32;68.61;100289.28;1711423;82;21019;-59
2021/12/11 09:23:51;;;;;;;14.65;5.90;;;;;;;9.30;68.60;100284.15;1702338;82;21110;-58
2021/12/11 09:26:24;;;;;;;13.08;5.62;;;;;;;9.24;68.72;100288.55;1746228;81;21086;-59
2021/12/11 09:28:59;;;;;;;12.03;6.80;;;;;;;9.19;68.73;100291.51;1738940;80;21070;-59
2021/12/11 09:31:42;;;;;;;12.40;7.37;;;;;;;9.15;68.65;100281.38;1723068;82;22215;-58
2021/12/11 09:34:14;;;;;;;14.45;6.87;;;;;;;9.09;68.53;100290.08;1733319;80;21054;-58
2021/12/11 09:36:44;;;;;;;12.45;6.62;;;;;;;9.03;68.47;100285.77;1736556;81;21178;-58
2021/12/11 09:39:15;;;;;;;12.03;6.30;;;;;;;8.96;68.49;100278.83;1723431;82;21039;-58
2021/12/11 09:41:41;;;;;;;15.85;5.97;;;;;;;8.98;68.44;100286.56;1736921;81;21003;-58
2021/12/11 09:44:21;;;;;;;14.68;6.42;;;;;;;9.06;68.23;100282.89;1729209;81;20892;-58
2021/12/11 09:46:52;;;;;;;11.25;5.55;;;;;;;9.14;68.14;100284.95;1712661;81;21623;-58
2021/12/11 09:49:23;;;;;;;12.33;6.55;;;;;;;9.18;68.16;100283.30;1714706;81;21228;-59
2021/12/11 09:51:58;;;;;;;10.32;6.17;;;;;;;9.19;68.13;100278.88;1700725;81;21762;-59
2021/12/11 09:54:22;;;;;;;11.20;5.40;;;;;;;9.20;67.98;100271.37;1723895;81;21078;-58
2021/12/11 09:56:58;;;;;;;11.25;6.25;;;;;;;9.20;67.91;100279.24;1708447;80;21583;-58
2021/12/11 09:59:28;;;;;;;11.40;6.05;;;;;;;9.18;67.83;100276.73;1732402;80;22254;-58
2021/12/11 10:01:59;;;;;;;10.75;5.92;;;;;;;9.14;67.82;100266.57;1735258;80;21156;-57
2021/12/11 10:04:32;;;;;;;11.08;6.50;;;;;;;9.10;67.77;100272.05;1729139;81;21984;-57
2021/12/11 10:09:41;;;;;;;9.43;5.28;;;;;;;9.08;67.65;100279.70;1705346;82;21065;-58
2021/12/11 10:12:12;;;;;;;9.00;5.33;;;;;;;9.16;67.45;100276.47;1729720;81;21098;-59
2021/12/11 10:14:51;;;;;;;10.30;5.28;;;;;;;9.21;67.54;100279.58;1736364;80;21105;-58
2021/12/11 10:17:37;;;;;;;9.23;5.58;;;;;;;9.21;67.69;100286.14;1689730;82;21022;-59
2021/12/11 10:20:07;;;;;;;10.72;5.25;;;;;;;9.18;68.09;100281.13;1747045;81;21062;-58
2021/12/11 10:22:36;;;;;;;10.23;4.85;;;;;;;9.14;68.37;100290.20;1727975;81;21079;-58
2021/12/11 10:25:08;;;;;;;10.98;6.03;;;;;;;9.09;68.70;100282.20;1731054;80;20991;-59
2021/12/11 10:27:34;;;;;;;10.28;5.92;;;;;;;9.04;69.03;100286.94;1686958;83;21207;-58
2021/12/11 10:30:04;;;;;;;9.60;5.37;;;;;;;9.00;69.23;100278.13;1678220;82;21043;-58
2021/12/11 10:32:31;;;;;;;10.72;5.47;;;;;;;8.97;69.26;100288.36;1721535;81;21031;-58
2021/12/11 10:35:03;;;;;;;8.60;5.10;;;;;;;8.99;69.21;100291.70;1683972;82;21199;-58
2021/12/11 10:37:36;;;;;;;11.48;5.28;;;;;;;9.09;69.02;100291.39;1718084;80;21066;-58
2021/12/11 10:40:26;;;;;;;11.33;5.08;;;;;;;9.16;68.84;100294.84;1691888;82;21061;-58
2021/12/11 10:42:58;;;;;;;10.05;5.00;;;;;;;9.15;68.83;100298.44;1669989;84;21109;-58
2021/12/11 10:45:24;;;;;;;10.65;5.53;;;;;;;9.12;68.93;100298.19;1733161;81;21091;-58
2021/12/11 10:47:55;;;;;;;9.55;5.58;;;;;;;9.08;69.04;100292.33;1728618;81;21126;-59
2021/12/11 10:50:45;;;;;;;8.53;4.90;;;;;;;9.06;69.01;100294.24;1719950;81;21102;-59
2021/12/11 10:53:14;;;;;;;12.18;5.80;;;;;;;9.01;69.13;100296.38;1728134;81;21197;-58
2021/12/11 10:55:41;;;;;;;11.00;5.15;;;;;;;8.95;69.37;100298.14;1716597;82;21095;-58
2021/12/11 10:58:15;;;;;;;10.88;5.00;;;;;;;8.91;69.58;100299.33;1724410;80;21024;-58
2021/12/11 11:01:07;;;;;;;8.43;4.47;;;;;;;8.94;69.60;100299.08;1699012;83;21046;-58
2021/12/11 11:03:36;;;;;;;7.12;3.50;;;;;;;9.01;69.46;100292.89;1682776;82;21061;-58
2021/12/11 11:06:04;;;;;;;7.20;3.70;;;;;;;9.02;69.54;100298.03;1671591;82;21831;-58
2021/12/11 11:08:31;;;;;;;7.78;3.92;;;;;;;9.04;69.62;100288.73;1690999;82;21813;-58
2021/12/11 11:11:02;;;;;;;7.55;3.87;;;;;;;9.00;69.72;100288.62;1690680;82;21141;-58
2021/12/11 11:13:29;;;;;;;8.08;4.03;;;;;;;8.98;69.92;100291.36;1718895;82;21051;-58
2021/12/11 11:15:57;;;;;;;6.37;3.35;;;;;;;8.97;69.90;100297.54;1727127;80;21721;-59
2021/12/11 11:18:25;;;;;;;7.65;3.65;;;;;;;8.92;69.94;100300.50;1727870;80;21101;-59
2021/12/11 11:21:11;;;;;;;8.45;3.10;;;;;;;8.87;69.86;100300.01;1736817;80;21142;-57
2021/12/11 11:23:39;;;;;;;7.67;3.22;;;;;;;8.81;69.91;100307.05;1738588;80;21094;-58
2021/12/11 11:26:11;;;;;;;6.47;2.90;;;;;;;8.81;69.87;100297.86;1710723;82;21057;-58
2021/12/11 11:28:37;;;;;;;5.85;2.52;;;;;;;8.84;69.79;100290.22;1712396;82;21058;-58
2021/12/11 11:31:15;;;;;;;6.37;2.98;;;;;;;8.85;69.73;100301.09;1705249;82;23292;-58
2021/12/11 11:33:42;;;;;;;6.45;3.55;;;;;;;8.83;69.94;100303.83;1699339;82;21007;-58
2021/12/11 11:36:12;;;;;;;5.40;2.72;;;;;;;8.79;70.22;100304.98;1701435;82;22315;-59
2021/12/11 11:38:42;;;;;;;6.17;2.72;;;;;;;8.77;70.28;100308.69;1675389;83;21049;-58
2021/12/11 11:41:14;;;;;;;6.75;3.30;;;;;;;8.73;70.40;100312.84;1683120;82;21165;-59
2021/12/11 11:43:42;;;;;;;11.57;3.45;;;;;;;8.67;70.65;100311.97;1711741;82;21625;-58
2021/12/11 11:46:09;;;;;;;7.62;3.83;;;;;;;8.61;70.81;100312.89;1688632;82;21089;-58
2021/12/11 11:48:37;;;;;;;6.67;3.58;;;;;;;8.62;70.80;100325.90;1707704;82;21087;-58
2021/12/11 11:51:09;;;;;;;6.53;3.60;;;;;;;8.71;70.73;100325.72;1696326;82;21079;-59
2021/12/11 11:53:35;;;;;;;6.67;3.40;;;;;;;8.74;70.53;100330.27;1692338;82;21027;-59
2021/12/11 11:56:06;;;;;;;8.45;3.90;;;;;;;8.74;70.62;100330.72;1699387;83;21583;-58
2021/12/11 11:58:35;;;;;;;9.68;4.42;;;;;;;8.71;70.65;100331.80;1711237;82;21048;-59
2021/12/11 12:01:07;;;;;;;7.75;3.70;;;;;;;8.65;70.54;100334.86;1694126;83;21122;-58
2021/12/11 12:03:34;;;;;;;7.72;4.20;;;;;;;8.57;70.78;100330.64;1667298;83;21078;-58
2021/12/11 12:06:05;;;;;;;8.28;4.45;;;;;;;8.50;70.93;100328.11;1696430;82;21072;-58
2021/12/11 12:08:33;;;;;;;7.72;4.28;;;;;;;8.45;71.10;100336.78;1696997;82;21177;-59
2021/12/11 12:11:01;;;;;;;7.25;3.62;;;;;;;8.45;71.11;100331.05;1673641;83;21093;-59
2021/12/11 12:13:28;;;;;;;7.72;3.67;;;;;;;8.55;71.04;100336.48;1692444;83;21120;-59
2021/12/11 12:16:00;;;;;;;7.30;3.85;;;;;;;8.60;71.05;100330.42;1693321;83;21051;-58
2021/12/11 12:18:28;;;;;;;8.38;4.47;;;;;;;8.66;71.13;100339.17;1694651;83;21034;-58
2021/12/11 12:20:55;;;;;;;8.08;4.00;;;;;;;8.66;71.18;100340.48;1693630;82;21106;-57
2021/12/11 12:23:22;;;;;;;7.15;4.12;;;;;;;8.66;71.07;100337.03;1691828;83;21557;-58
2021/12/11 12:25:51;;;;;;;7.67;4.12;;;;;;;8.61;71.06;100342.60;1685150;83;21106;-58
2021/12/11 12:28:18;;;;;;;7.00;3.72;;;;;;;8.60;71.06;100330.91;1671513;83;21092;-58
2021/12/11 12:30:49;;;;;;;8.35;3.67;;;;;;;8.57;71.12;100346.38;1682579;83;21095;-59
2021/12/11 12:33:16;;;;;;;8.70;3.95;;;;;;;8.58;70.93;100341.99;1687056;83;22411;-58
2021/12/11 12:35:43;;;;;;;7.40;3.75;;;;;;;8.64;70.79;100342.38;1727105;80;21528;-58
2021/12/11 12:38:11;;;;;;;7.08;2.83;;;;;;;8.70;70.69;100337.98;1728215;80;21001;-59
2021/12/11 12:40:48;;;;;;;6.35;3.20;;;;;;;8.71;70.64;100343.61;1728893;80;21146;-58
2021/12/11 12:43:41;;;;;;;8.78;3.67;;;;;;;8.69;70.78;100345.51;1694012;82;21364;-58
2021/12/11 12:45:49;;;;;;;9.20;3.83;;;;;;;8.69;70.88;100343.34;1692599;82;21180;-58
2021/12/11 12:48:18;;;;;;;7.20;4.10;;;;;;;8.68;70.95;100343.82;1698088;82;21090;-58
2021/12/11 12:50:58;;;;;;;7.25;3.72;;;;;;;8.66;70.73;100341.79;1729320;80;22187;-58
2021/12/11 12:53:24;;;;;;;7.62;3.90;;;;;;;8.60;70.65;100347.47;1676821;83;21113;-58
2021/12/11 12:55:57;;;;;;;7.10;3.92;;;;;;;8.52;70.76;100349.81;1694973;82;21074;-58
2021/12/11 12:58:36;;;;;;;8.00;4.15;;;;;;;8.53;70.77;100353.63;1732294;80;21876;-58
2021/12/11 13:01:16;;;;;;;8.55;4.30;;;;;;;8.60;70.62;100357.97;1731105;82;21106;-58
2021/12/11 13:03:44;;;;;;;8.75;3.98;;;;;;;8.66;70.59;100356.70;1724867;80;21142;-58
2021/12/11 13:06:19;;;;;;;7.75;3.92;;;;;;;8.69;70.63;100364.32;1698257;82;21039;-58
2021/12/11 13:08:53;;;;;;;7.47;3.72;;;;;;;8.67;70.69;100367.05;1694792;82;21055;-58
2021/12/11 13:11:26;;;;;;;9.10;4.83;;;;;;;8.61;70.73;100360.10;1701394;82;21077;-58
2021/12/11 13:13:56;;;;;;;8.25;4.90;;;;;;;8.57;71.00;100367.36;1674086;83;21067;-58